sensor_id;sensor_type;location;lat;lon;timestamp;P1;durP1;ratioP1;P2;durP2;ratioP2
26824;SDS011;14402;48.178;11.566;2023-03-31T00:00:21;12.6;;;3.9;;
26824;SDS011;14402;48.178;11.566;2023-03-31T00:00:51;12.6;;;3.9;;
26824;SDS011;14402;48.178;11.566;2023-03-31T00:01:21;11.9;;;3.9;;
26824;SDS011;14402;48.178;11.566;2023-03-31T00:01:51;11.2;;;3.9;;
26824;SDS011;14402;48.178;11.566;2023-03-31T00:02:21;11.2;;;3.9;;
26824;SDS011;14402;48.178;11.566;2023-03-31T00:02:51;11.2;;;3.9;;
26824;SDS011;14402;48.178;11.566;2023-03-31T00:03:21;9.1;;;3.8;;
26824;SDS011;14402;48.178;11.566;2023-03-31T00:03:51;6.9;;;3.7;;
26824;SDS011;14402;48.178;11.566;2023-03-31T00:04:21;6.9;;;3.7;;
26824;SDS011;14402;48.178;11.566;2023-03-31T00:04:51;6.9;;;3.7;;
26824;SDS011;14402;48.178;11.566;2023-03-31T00:05:21;7.2;;;3.8;;
26824;SDS011;14402;48.178;11.566;2023-03-31T00:05:54;7.5;;;3.8;;
26824;SDS011;14402;48.178;11.566;2023-03-31T00:06:21;7.5;;;3.8;;
26824;SDS011;14402;48.178;11.566;2023-03-31T00:06:52;7.5;;;3.8;;
26824;SDS011;14402;48.178;11.566;2023-03-31T00:07:21;7.5;;;4.6;;
26824;SDS011;14402;48.178;11.566;2023-03-31T00:07:52;7.5;;;5.4;;
26824;SDS011;14402;48.178;11.566;2023-03-31T00:08:22;7.5;;;5.4;;
26824;SDS011;14402;48.178;11.566;2023-03-31T00:08:52;7.5;;;5.4;;
26824;SDS011;14402;48.178;11.566;2023-03-31T00:09:22;8.9;;;5.0;;
26824;SDS011;14402;48.178;11.566;2023-03-31T00:09:52;10.2;;;4.6;;
26824;SDS011;14402;48.178;11.566;2023-03-31T00:10:22;10.2;;;4.6;;
26824;SDS011;14402;48.178;11.566;2023-03-31T00:10:52;10.2;;;4.6;;
26824;SDS011;14402;48.178;11.566;2023-03-31T00:11:22;9.0;;;4.2;;
26824;SDS011;14402;48.178;11.566;2023-03-31T00:11:53;7.8;;;3.9;;
26824;SDS011;14402;48.178;11.566;2023-03-31T00:12:22;7.8;;;3.9;;
26824;SDS011;14402;48.178;11.566;2023-03-31T00:12:52;7.8;;;3.9;;
26824;SDS011;14402;48.178;11.566;2023-03-31T00:13:22;8.5;;;3.8;;
26824;SDS011;14402;48.178;11.566;2023-03-31T00:13:52;9.1;;;3.8;;
26824;SDS011;14402;48.178;11.566;2023-03-31T00:14:23;9.1;;;3.8;;
26824;SDS011;14402;48.178;11.566;2023-03-31T00:14:52;9.1;;;3.8;;
26824;SDS011;14402;48.178;11.566;2023-03-31T00:15:22;7.6;;;3.8;;
26824;SDS011;14402;48.178;11.566;2023-03-31T00:15:55;6.1;;;3.9;;
26824;SDS011;14402;48.178;11.566;2023-03-31T00:16:23;6.1;;;3.9;;
26824;SDS011;14402;48.178;11.566;2023-03-31T00:16:53;6.1;;;3.9;;
26824;SDS011;14402;48.178;11.566;2023-03-31T00:17:24;6.6;;;3.8;;
26824;SDS011;14402;48.178;11.566;2023-03-31T00:17:53;7.0;;;3.6;;
26824;SDS011;14402;48.178;11.566;2023-03-31T00:18:23;7.0;;;3.6;;
26824;SDS011;14402;48.178;11.566;2023-03-31T00:18:53;7.0;;;3.6;;
26824;SDS011;14402;48.178;11.566;2023-03-31T00:19:23;11.5;;;4.0;;
26824;SDS011;14402;48.178;11.566;2023-03-31T00:19:53;16.0;;;4.3;;
26824;SDS011;14402;48.178;11.566;2023-03-31T00:20:23;16.0;;;4.3;;
26824;SDS011;14402;48.178;11.566;2023-03-31T00:20:53;16.0;;;4.3;;
26824;SDS011;14402;48.178;11.566;2023-03-31T00:21:23;12.7;;;4.2;;
26824;SDS011;14402;48.178;11.566;2023-03-31T00:21:53;9.4;;;4.2;;
26824;SDS011;14402;48.178;11.566;2023-03-31T00:22:23;9.4;;;4.2;;
26824;SDS011;14402;48.178;11.566;2023-03-31T00:22:54;9.4;;;4.2;;
26824;SDS011;14402;48.178;11.566;2023-03-31T00:23:23;9.3;;;3.9;;
26824;SDS011;14402;48.178;11.566;2023-03-31T00:23:54;9.2;;;3.6;;
26824;SDS011;14402;48.178;11.566;2023-03-31T00:24:24;9.2;;;3.6;;
26824;SDS011;14402;48.178;11.566;2023-03-31T00:24:54;9.2;;;3.6;;
26824;SDS011;14402;48.178;11.566;2023-03-31T00:25:24;9.6;;;3.8;;
26824;SDS011;14402;48.178;11.566;2023-03-31T00:25:54;10.1;;;4.1;;
26824;SDS011;14402;48.178;11.566;2023-03-31T00:26:24;10.1;;;4.1;;
26824;SDS011;14402;48.178;11.566;2023-03-31T00:26:54;10.1;;;4.1;;
26824;SDS011;14402;48.178;11.566;2023-03-31T00:27:24;14.0;;;4.5;;
26824;SDS011;14402;48.178;11.566;2023-03-31T00:27:54;17.9;;;4.9;;
26824;SDS011;14402;48.178;11.566;2023-03-31T00:28:24;17.9;;;4.9;;
26824;SDS011;14402;48.178;11.566;2023-03-31T00:28:54;17.9;;;4.9;;
26824;SDS011;14402;48.178;11.566;2023-03-31T00:29:24;12.6;;;4.3;;
26824;SDS011;14402;48.178;11.566;2023-03-31T00:29:54;7.4;;;3.8;;
26824;SDS011;14402;48.178;11.566;2023-03-31T00:30:24;7.4;;;3.8;;
26824;SDS011;14402;48.178;11.566;2023-03-31T00:30:58;7.4;;;3.8;;
26824;SDS011;14402;48.178;11.566;2023-03-31T00:31:25;9.6;;;4.0;;
26824;SDS011;14402;48.178;11.566;2023-03-31T00:31:54;11.8;;;4.2;;
26824;SDS011;14402;48.178;11.566;2023-03-31T00:32:25;11.8;;;4.2;;
26824;SDS011;14402;48.178;11.566;2023-03-31T00:32:55;11.8;;;4.2;;
26824;SDS011;14402;48.178;11.566;2023-03-31T00:33:25;14.4;;;4.4;;
26824;SDS011;14402;48.178;11.566;2023-03-31T00:33:55;16.9;;;4.7;;
26824;SDS011;14402;48.178;11.566;2023-03-31T00:34:25;16.9;;;4.7;;
26824;SDS011;14402;48.178;11.566;2023-03-31T00:34:55;16.9;;;4.7;;
26824;SDS011;14402;48.178;11.566;2023-03-31T00:35:25;13.4;;;4.3;;
26824;SDS011;14402;48.178;11.566;2023-03-31T00:35:55;9.8;;;3.9;;
26824;SDS011;14402;48.178;11.566;2023-03-31T00:36:25;9.8;;;3.9;;
26824;SDS011;14402;48.178;11.566;2023-03-31T00:36:55;9.8;;;3.9;;
26824;SDS011;14402;48.178;11.566;2023-03-31T00:37:25;11.2;;;4.1;;
26824;SDS011;14402;48.178;11.566;2023-03-31T00:37:55;12.6;;;4.3;;
26824;SDS011;14402;48.178;11.566;2023-03-31T00:38:25;12.6;;;4.3;;
26824;SDS011;14402;48.178;11.566;2023-03-31T00:38:56;12.6;;;4.3;;
26824;SDS011;14402;48.178;11.566;2023-03-31T00:39:25;11.6;;;4.2;;
26824;SDS011;14402;48.178;11.566;2023-03-31T00:39:55;10.5;;;4.0;;
26824;SDS011;14402;48.178;11.566;2023-03-31T00:40:25;10.5;;;4.0;;
26824;SDS011;14402;48.178;11.566;2023-03-31T00:40:56;10.5;;;4.0;;
26824;SDS011;14402;48.178;11.566;2023-03-31T00:41:25;15.5;;;4.3;;
26824;SDS011;14402;48.178;11.566;2023-03-31T00:41:56;20.5;;;4.6;;
26824;SDS011;14402;48.178;11.566;2023-03-31T00:42:26;20.5;;;4.6;;
26824;SDS011;14402;48.178;11.566;2023-03-31T00:42:56;20.5;;;4.6;;
26824;SDS011;14402;48.178;11.566;2023-03-31T00:43:27;15.2;;;4.4;;
26824;SDS011;14402;48.178;11.566;2023-03-31T00:44:00;10.0;;;4.3;;
26824;SDS011;14402;48.178;11.566;2023-03-31T00:44:28;10.0;;;4.3;;
26824;SDS011;14402;48.178;11.566;2023-03-31T00:45:28;11.4;;;4.4;;
26824;SDS011;14402;48.178;11.566;2023-03-31T00:45:28;10.0;;;4.3;;
26824;SDS011;14402;48.178;11.566;2023-03-31T00:45:59;12.7;;;4.4;;
26824;SDS011;14402;48.178;11.566;2023-03-31T00:46:28;12.7;;;4.4;;
26824;SDS011;14402;48.178;11.566;2023-03-31T00:46:57;12.7;;;4.4;;
26824;SDS011;14402;48.178;11.566;2023-03-31T00:47:26;13.0;;;4.2;;
26824;SDS011;14402;48.178;11.566;2023-03-31T00:48:00;13.4;;;4.1;;
26824;SDS011;14402;48.178;11.566;2023-03-31T00:48:26;13.4;;;4.1;;
26824;SDS011;14402;48.178;11.566;2023-03-31T00:48:56;13.4;;;4.1;;
26824;SDS011;14402;48.178;11.566;2023-03-31T00:49:27;10.5;;;4.1;;
26824;SDS011;14402;48.178;11.566;2023-03-31T00:49:57;7.7;;;4.0;;
26824;SDS011;14402;48.178;11.566;2023-03-31T00:50:28;7.7;;;4.0;;
26824;SDS011;14402;48.178;11.566;2023-03-31T00:50:57;7.7;;;4.0;;
26824;SDS011;14402;48.178;11.566;2023-03-31T00:51:28;13.8;;;4.2;;
26824;SDS011;14402;48.178;11.566;2023-03-31T00:51:59;19.8;;;4.4;;
26824;SDS011;14402;48.178;11.566;2023-03-31T00:52:29;19.8;;;4.4;;
26824;SDS011;14402;48.178;11.566;2023-03-31T00:52:57;19.8;;;4.4;;
26824;SDS011;14402;48.178;11.566;2023-03-31T00:53:28;15.0;;;4.1;;
26824;SDS011;14402;48.178;11.566;2023-03-31T00:53:58;10.2;;;3.8;;
26824;SDS011;14402;48.178;11.566;2023-03-31T00:54:27;10.2;;;3.8;;
26824;SDS011;14402;48.178;11.566;2023-03-31T00:54:58;10.2;;;3.8;;
26824;SDS011;14402;48.178;11.566;2023-03-31T00:55:29;9.8;;;3.7;;
26824;SDS011;14402;48.178;11.566;2023-03-31T00:55:58;9.3;;;3.6;;
26824;SDS011;14402;48.178;11.566;2023-03-31T00:56:28;9.3;;;3.6;;
26824;SDS011;14402;48.178;11.566;2023-03-31T00:56:57;9.3;;;3.6;;
26824;SDS011;14402;48.178;11.566;2023-03-31T00:57:27;9.6;;;3.8;;
26824;SDS011;14402;48.178;11.566;2023-03-31T00:57:58;10.0;;;4.1;;
26824;SDS011;14402;48.178;11.566;2023-03-31T00:58:28;10.0;;;4.1;;
26824;SDS011;14402;48.178;11.566;2023-03-31T00:58:59;10.0;;;4.1;;
26824;SDS011;14402;48.178;11.566;2023-03-31T00:59:28;14.1;;;4.5;;
26824;SDS011;14402;48.178;11.566;2023-03-31T00:59:59;18.3;;;4.9;;
26824;SDS011;14402;48.178;11.566;2023-03-31T01:00:28;18.3;;;4.9;;
26824;SDS011;14402;48.178;11.566;2023-03-31T01:00:59;18.3;;;4.9;;
26824;SDS011;14402;48.178;11.566;2023-03-31T01:01:28;14.4;;;4.3;;
26824;SDS011;14402;48.178;11.566;2023-03-31T01:01:58;10.5;;;3.8;;
26824;SDS011;14402;48.178;11.566;2023-03-31T01:02:28;10.5;;;3.8;;
26824;SDS011;14402;48.178;11.566;2023-03-31T01:02:59;10.5;;;3.8;;
26824;SDS011;14402;48.178;11.566;2023-03-31T01:03:29;10.1;;;3.9;;
26824;SDS011;14402;48.178;11.566;2023-03-31T01:03:58;9.8;;;4.0;;
26824;SDS011;14402;48.178;11.566;2023-03-31T01:04:29;9.8;;;4.0;;
26824;SDS011;14402;48.178;11.566;2023-03-31T01:04:59;9.8;;;4.0;;
26824;SDS011;14402;48.178;11.566;2023-03-31T01:05:29;7.7;;;3.8;;
26824;SDS011;14402;48.178;11.566;2023-03-31T01:05:59;5.6;;;3.5;;
26824;SDS011;14402;48.178;11.566;2023-03-31T01:06:29;5.6;;;3.5;;
26824;SDS011;14402;48.178;11.566;2023-03-31T01:07:00;5.6;;;3.5;;
26824;SDS011;14402;48.178;11.566;2023-03-31T01:07:30;14.2;;;4.2;;
26824;SDS011;14402;48.178;11.566;2023-03-31T01:07:59;22.9;;;5.0;;
26824;SDS011;14402;48.178;11.566;2023-03-31T01:08:29;22.9;;;5.0;;
26824;SDS011;14402;48.178;11.566;2023-03-31T01:08:59;22.9;;;5.0;;
26824;SDS011;14402;48.178;11.566;2023-03-31T01:09:29;16.1;;;4.3;;
26824;SDS011;14402;48.178;11.566;2023-03-31T01:10:00;9.3;;;3.7;;
26824;SDS011;14402;48.178;11.566;2023-03-31T01:10:29;9.3;;;3.7;;
26824;SDS011;14402;48.178;11.566;2023-03-31T01:11:00;9.3;;;3.7;;
26824;SDS011;14402;48.178;11.566;2023-03-31T01:11:29;9.0;;;3.7;;
26824;SDS011;14402;48.178;11.566;2023-03-31T01:12:00;8.7;;;3.7;;
26824;SDS011;14402;48.178;11.566;2023-03-31T01:12:29;8.7;;;3.7;;
26824;SDS011;14402;48.178;11.566;2023-03-31T01:12:59;8.7;;;3.7;;
26824;SDS011;14402;48.178;11.566;2023-03-31T01:13:29;8.0;;;3.9;;
26824;SDS011;14402;48.178;11.566;2023-03-31T01:13:59;7.3;;;4.2;;
26824;SDS011;14402;48.178;11.566;2023-03-31T01:14:30;7.3;;;4.2;;
26824;SDS011;14402;48.178;11.566;2023-03-31T01:15:00;7.3;;;4.2;;
26824;SDS011;14402;48.178;11.566;2023-03-31T01:15:30;6.9;;;4.1;;
26824;SDS011;14402;48.178;11.566;2023-03-31T01:16:00;6.6;;;3.9;;
26824;SDS011;14402;48.178;11.566;2023-03-31T01:16:30;6.6;;;3.9;;
26824;SDS011;14402;48.178;11.566;2023-03-31T01:17:00;6.6;;;3.9;;
26824;SDS011;14402;48.178;11.566;2023-03-31T01:17:31;13.4;;;4.4;;
26824;SDS011;14402;48.178;11.566;2023-03-31T01:18:00;20.3;;;5.0;;
26824;SDS011;14402;48.178;11.566;2023-03-31T01:18:30;20.3;;;5.0;;
26824;SDS011;14402;48.178;11.566;2023-03-31T01:19:00;20.3;;;5.0;;
26824;SDS011;14402;48.178;11.566;2023-03-31T01:19:34;14.4;;;4.3;;
26824;SDS011;14402;48.178;11.566;2023-03-31T01:20:03;8.5;;;3.6;;
26824;SDS011;14402;48.178;11.566;2023-03-31T01:20:32;8.5;;;3.6;;
26824;SDS011;14402;48.178;11.566;2023-03-31T01:21:07;8.5;;;3.6;;
26824;SDS011;14402;48.178;11.566;2023-03-31T01:22:14;12.1;;;4.1;;
26824;SDS011;14402;48.178;11.566;2023-03-31T01:22:21;15.8;;;4.5;;
26824;SDS011;14402;48.178;11.566;2023-03-31T01:22:38;15.8;;;4.5;;
26824;SDS011;14402;48.178;11.566;2023-03-31T01:23:40;12.9;;;4.3;;
26824;SDS011;14402;48.178;11.566;2023-03-31T01:24:06;10.0;;;4.2;;
26824;SDS011;14402;48.178;11.566;2023-03-31T01:24:42;10.0;;;4.2;;
26824;SDS011;14402;48.178;11.566;2023-03-31T01:25:09;10.0;;;4.2;;
26824;SDS011;14402;48.178;11.566;2023-03-31T01:25:37;11.2;;;4.1;;
26824;SDS011;14402;48.178;11.566;2023-03-31T01:26:06;12.4;;;4.1;;
26824;SDS011;14402;48.178;11.566;2023-03-31T01:26:41;12.4;;;4.1;;
26824;SDS011;14402;48.178;11.566;2023-03-31T01:27:05;12.4;;;4.1;;
26824;SDS011;14402;48.178;11.566;2023-03-31T01:27:36;8.7;;;3.9;;
26824;SDS011;14402;48.178;11.566;2023-03-31T01:28:04;5.0;;;3.7;;
26824;SDS011;14402;48.178;11.566;2023-03-31T01:28:32;5.0;;;3.7;;
26824;SDS011;14402;48.178;11.566;2023-03-31T01:29:02;5.0;;;3.7;;
26824;SDS011;14402;48.178;11.566;2023-03-31T01:29:43;11.3;;;4.1;;
26824;SDS011;14402;48.178;11.566;2023-03-31T01:30:08;17.6;;;4.4;;
26824;SDS011;14402;48.178;11.566;2023-03-31T01:30:36;17.6;;;4.4;;
26824;SDS011;14402;48.178;11.566;2023-03-31T01:31:20;17.6;;;4.4;;
26824;SDS011;14402;48.178;11.566;2023-03-31T01:31:36;11.8;;;4.1;;
26824;SDS011;14402;48.178;11.566;2023-03-31T01:33:09;6.0;;;3.7;;
26824;SDS011;14402;48.178;11.566;2023-03-31T01:33:17;6.0;;;3.7;;
26824;SDS011;14402;48.178;11.566;2023-03-31T01:33:20;6.0;;;3.7;;
26824;SDS011;14402;48.178;11.566;2023-03-31T01:33:38;19.8;;;4.7;;
26824;SDS011;14402;48.178;11.566;2023-03-31T01:34:39;33.6;;;5.7;;
26824;SDS011;14402;48.178;11.566;2023-03-31T01:34:44;33.6;;;5.7;;
26824;SDS011;14402;48.178;11.566;2023-03-31T01:35:08;33.6;;;5.7;;
26824;SDS011;14402;48.178;11.566;2023-03-31T01:35:38;20.9;;;4.9;;
26824;SDS011;14402;48.178;11.566;2023-03-31T01:36:08;8.3;;;4.2;;
26824;SDS011;14402;48.178;11.566;2023-03-31T01:36:34;8.3;;;4.2;;
26824;SDS011;14402;48.178;11.566;2023-03-31T01:37:21;8.3;;;4.2;;
26824;SDS011;14402;48.178;11.566;2023-03-31T01:38:09;13.0;;;4.4;;
26824;SDS011;14402;48.178;11.566;2023-03-31T01:38:15;17.8;;;4.7;;
26824;SDS011;14402;48.178;11.566;2023-03-31T01:38:37;17.8;;;4.7;;
26824;SDS011;14402;48.178;11.566;2023-03-31T01:39:11;17.8;;;4.7;;
26824;SDS011;14402;48.178;11.566;2023-03-31T01:39:44;14.5;;;4.4;;
26824;SDS011;14402;48.178;11.566;2023-03-31T01:40:05;11.3;;;4.2;;
26824;SDS011;14402;48.178;11.566;2023-03-31T01:40:34;11.3;;;4.2;;
26824;SDS011;14402;48.178;11.566;2023-03-31T01:41:05;11.3;;;4.2;;
26824;SDS011;14402;48.178;11.566;2023-03-31T01:41:36;25.2;;;5.3;;
26824;SDS011;14402;48.178;11.566;2023-03-31T01:42:04;39.2;;;6.5;;
26824;SDS011;14402;48.178;11.566;2023-03-31T01:42:33;39.2;;;6.5;;
26824;SDS011;14402;48.178;11.566;2023-03-31T01:43:05;39.2;;;6.5;;
26824;SDS011;14402;48.178;11.566;2023-03-31T01:43:34;24.8;;;5.1;;
26824;SDS011;14402;48.178;11.566;2023-03-31T01:44:05;10.4;;;3.6;;
26824;SDS011;14402;48.178;11.566;2023-03-31T01:44:36;10.4;;;3.6;;
26824;SDS011;14402;48.178;11.566;2023-03-31T01:45:06;10.4;;;3.6;;
26824;SDS011;14402;48.178;11.566;2023-03-31T01:45:36;10.9;;;4.0;;
26824;SDS011;14402;48.178;11.566;2023-03-31T01:46:04;11.5;;;4.3;;
26824;SDS011;14402;48.178;11.566;2023-03-31T01:46:34;11.5;;;4.3;;
26824;SDS011;14402;48.178;11.566;2023-03-31T01:47:05;11.5;;;4.3;;
26824;SDS011;14402;48.178;11.566;2023-03-31T01:47:34;12.4;;;4.4;;
26824;SDS011;14402;48.178;11.566;2023-03-31T01:48:05;13.3;;;4.4;;
26824;SDS011;14402;48.178;11.566;2023-03-31T01:48:36;13.3;;;4.4;;
26824;SDS011;14402;48.178;11.566;2023-03-31T01:49:06;13.3;;;4.4;;
26824;SDS011;14402;48.178;11.566;2023-03-31T01:49:36;12.6;;;4.2;;
26824;SDS011;14402;48.178;11.566;2023-03-31T01:50:04;12.0;;;4.1;;
26824;SDS011;14402;48.178;11.566;2023-03-31T01:50:34;12.0;;;4.1;;
26824;SDS011;14402;48.178;11.566;2023-03-31T01:51:05;12.0;;;4.1;;
26824;SDS011;14402;48.178;11.566;2023-03-31T01:51:34;11.0;;;3.9;;
26824;SDS011;14402;48.178;11.566;2023-03-31T01:52:05;10.0;;;3.7;;
26824;SDS011;14402;48.178;11.566;2023-03-31T01:52:36;10.0;;;3.7;;
26824;SDS011;14402;48.178;11.566;2023-03-31T01:53:04;10.0;;;3.7;;
26824;SDS011;14402;48.178;11.566;2023-03-31T01:53:35;8.9;;;4.0;;
26824;SDS011;14402;48.178;11.566;2023-03-31T01:54:08;7.9;;;4.3;;
26824;SDS011;14402;48.178;11.566;2023-03-31T01:54:36;7.9;;;4.3;;
26824;SDS011;14402;48.178;11.566;2023-03-31T01:55:05;7.9;;;4.3;;
26824;SDS011;14402;48.178;11.566;2023-03-31T01:55:35;7.9;;;4.1;;
26824;SDS011;14402;48.178;11.566;2023-03-31T01:56:05;7.8;;;3.8;;
26824;SDS011;14402;48.178;11.566;2023-03-31T01:56:36;7.8;;;3.8;;
26824;SDS011;14402;48.178;11.566;2023-03-31T01:57:07;7.8;;;3.8;;
26824;SDS011;14402;48.178;11.566;2023-03-31T01:57:35;6.8;;;3.8;;
26824;SDS011;14402;48.178;11.566;2023-03-31T01:58:06;5.7;;;3.8;;
26824;SDS011;14402;48.178;11.566;2023-03-31T01:58:35;5.7;;;3.8;;
26824;SDS011;14402;48.178;11.566;2023-03-31T01:59:06;5.7;;;3.8;;
26824;SDS011;14402;48.178;11.566;2023-03-31T01:59:37;6.8;;;4.1;;
26824;SDS011;14402;48.178;11.566;2023-03-31T02:00:05;8.0;;;4.4;;
26824;SDS011;14402;48.178;11.566;2023-03-31T02:00:36;8.0;;;4.4;;
26824;SDS011;14402;48.178;11.566;2023-03-31T02:01:07;8.0;;;4.4;;
26824;SDS011;14402;48.178;11.566;2023-03-31T02:01:35;7.9;;;4.4;;
26824;SDS011;14402;48.178;11.566;2023-03-31T02:02:06;7.9;;;4.4;;
26824;SDS011;14402;48.178;11.566;2023-03-31T02:02:36;7.9;;;4.4;;
26824;SDS011;14402;48.178;11.566;2023-03-31T02:03:07;7.9;;;4.4;;
26824;SDS011;14402;48.178;11.566;2023-03-31T02:03:36;7.9;;;4.2;;
26824;SDS011;14402;48.178;11.566;2023-03-31T02:04:06;7.8;;;4.0;;
26824;SDS011;14402;48.178;11.566;2023-03-31T02:04:36;7.8;;;4.0;;
26824;SDS011;14402;48.178;11.566;2023-03-31T02:05:06;7.8;;;4.0;;
26824;SDS011;14402;48.178;11.566;2023-03-31T02:05:36;7.7;;;4.2;;
26824;SDS011;14402;48.178;11.566;2023-03-31T02:06:07;7.6;;;4.3;;
26824;SDS011;14402;48.178;11.566;2023-03-31T02:06:36;7.6;;;4.3;;
26824;SDS011;14402;48.178;11.566;2023-03-31T02:07:06;7.6;;;4.3;;
26824;SDS011;14402;48.178;11.566;2023-03-31T02:07:36;9.1;;;4.3;;
26824;SDS011;14402;48.178;11.566;2023-03-31T02:08:07;10.5;;;4.3;;
26824;SDS011;14402;48.178;11.566;2023-03-31T02:08:37;10.5;;;4.3;;
26824;SDS011;14402;48.178;11.566;2023-03-31T02:09:08;10.5;;;4.3;;
26824;SDS011;14402;48.178;11.566;2023-03-31T02:09:37;8.9;;;4.4;;
26824;SDS011;14402;48.178;11.566;2023-03-31T02:10:07;7.2;;;4.5;;
26824;SDS011;14402;48.178;11.566;2023-03-31T02:10:36;7.2;;;4.5;;
26824;SDS011;14402;48.178;11.566;2023-03-31T02:11:06;7.2;;;4.5;;
26824;SDS011;14402;48.178;11.566;2023-03-31T02:11:36;7.2;;;4.3;;
26824;SDS011;14402;48.178;11.566;2023-03-31T02:12:07;7.3;;;4.2;;
26824;SDS011;14402;48.178;11.566;2023-03-31T02:12:37;7.3;;;4.2;;
26824;SDS011;14402;48.178;11.566;2023-03-31T02:13:06;7.3;;;4.2;;
26824;SDS011;14402;48.178;11.566;2023-03-31T02:13:37;8.1;;;4.3;;
26824;SDS011;14402;48.178;11.566;2023-03-31T02:14:07;8.8;;;4.5;;
26824;SDS011;14402;48.178;11.566;2023-03-31T02:14:37;8.8;;;4.5;;
26824;SDS011;14402;48.178;11.566;2023-03-31T02:15:07;8.8;;;4.5;;
26824;SDS011;14402;48.178;11.566;2023-03-31T02:15:37;7.7;;;4.6;;
26824;SDS011;14402;48.178;11.566;2023-03-31T02:16:08;6.5;;;4.6;;
26824;SDS011;14402;48.178;11.566;2023-03-31T02:16:37;6.5;;;4.6;;
26824;SDS011;14402;48.178;11.566;2023-03-31T02:17:09;6.5;;;4.6;;
26824;SDS011;14402;48.178;11.566;2023-03-31T02:17:37;6.2;;;4.4;;
26824;SDS011;14402;48.178;11.566;2023-03-31T02:18:08;6.0;;;4.2;;
26824;SDS011;14402;48.178;11.566;2023-03-31T02:18:37;6.0;;;4.2;;
26824;SDS011;14402;48.178;11.566;2023-03-31T02:19:07;6.0;;;4.2;;
26824;SDS011;14402;48.178;11.566;2023-03-31T02:19:37;7.9;;;4.4;;
26824;SDS011;14402;48.178;11.566;2023-03-31T02:20:08;9.8;;;4.6;;
26824;SDS011;14402;48.178;11.566;2023-03-31T02:20:38;9.8;;;4.6;;
26824;SDS011;14402;48.178;11.566;2023-03-31T02:21:07;9.8;;;4.6;;
26824;SDS011;14402;48.178;11.566;2023-03-31T02:21:37;9.1;;;4.3;;
26824;SDS011;14402;48.178;11.566;2023-03-31T02:22:07;8.5;;;4.0;;
26824;SDS011;14402;48.178;11.566;2023-03-31T02:22:38;8.5;;;4.0;;
26824;SDS011;14402;48.178;11.566;2023-03-31T02:23:08;8.5;;;4.0;;
26824;SDS011;14402;48.178;11.566;2023-03-31T02:23:37;12.9;;;4.6;;
26824;SDS011;14402;48.178;11.566;2023-03-31T02:24:10;17.3;;;5.2;;
26824;SDS011;14402;48.178;11.566;2023-03-31T02:24:38;17.3;;;5.2;;
26824;SDS011;14402;48.178;11.566;2023-03-31T02:25:09;17.3;;;5.2;;
26824;SDS011;14402;48.178;11.566;2023-03-31T02:25:39;12.7;;;4.7;;
26824;SDS011;14402;48.178;11.566;2023-03-31T02:26:09;8.1;;;4.2;;
26824;SDS011;14402;48.178;11.566;2023-03-31T02:26:38;8.1;;;4.2;;
26824;SDS011;14402;48.178;11.566;2023-03-31T02:27:08;8.1;;;4.2;;
26824;SDS011;14402;48.178;11.566;2023-03-31T02:27:38;7.6;;;4.2;;
26824;SDS011;14402;48.178;11.566;2023-03-31T02:28:09;7.0;;;4.2;;
26824;SDS011;14402;48.178;11.566;2023-03-31T02:28:38;7.0;;;4.2;;
26824;SDS011;14402;48.178;11.566;2023-03-31T02:29:08;7.0;;;4.2;;
26824;SDS011;14402;48.178;11.566;2023-03-31T02:29:38;7.7;;;4.1;;
26824;SDS011;14402;48.178;11.566;2023-03-31T02:30:09;8.4;;;4.1;;
26824;SDS011;14402;48.178;11.566;2023-03-31T02:30:41;8.4;;;4.1;;
26824;SDS011;14402;48.178;11.566;2023-03-31T02:31:15;8.4;;;4.1;;
26824;SDS011;14402;48.178;11.566;2023-03-31T02:31:40;8.6;;;4.1;;
26824;SDS011;14402;48.178;11.566;2023-03-31T02:32:10;8.9;;;4.2;;
26824;SDS011;14402;48.178;11.566;2023-03-31T02:32:39;8.9;;;4.2;;
26824;SDS011;14402;48.178;11.566;2023-03-31T02:33:09;8.9;;;4.2;;
26824;SDS011;14402;48.178;11.566;2023-03-31T02:33:39;7.6;;;3.9;;
26824;SDS011;14402;48.178;11.566;2023-03-31T02:34:09;6.4;;;3.7;;
26824;SDS011;14402;48.178;11.566;2023-03-31T02:34:39;6.4;;;3.7;;
26824;SDS011;14402;48.178;11.566;2023-03-31T02:35:10;6.4;;;3.7;;
26824;SDS011;14402;48.178;11.566;2023-03-31T02:35:39;7.2;;;3.9;;
26824;SDS011;14402;48.178;11.566;2023-03-31T02:36:09;7.9;;;4.2;;
26824;SDS011;14402;48.178;11.566;2023-03-31T02:36:39;7.9;;;4.2;;
26824;SDS011;14402;48.178;11.566;2023-03-31T02:37:09;7.9;;;4.2;;
26824;SDS011;14402;48.178;11.566;2023-03-31T02:37:39;7.1;;;4.1;;
26824;SDS011;14402;48.178;11.566;2023-03-31T02:38:09;6.2;;;4.0;;
26824;SDS011;14402;48.178;11.566;2023-03-31T02:38:42;6.2;;;4.0;;
26824;SDS011;14402;48.178;11.566;2023-03-31T02:39:11;6.2;;;4.0;;
26824;SDS011;14402;48.178;11.566;2023-03-31T02:39:40;6.6;;;4.0;;
26824;SDS011;14402;48.178;11.566;2023-03-31T02:40:10;7.1;;;4.0;;
26824;SDS011;14402;48.178;11.566;2023-03-31T02:40:40;7.1;;;4.0;;
26824;SDS011;14402;48.178;11.566;2023-03-31T02:41:10;7.1;;;4.0;;
26824;SDS011;14402;48.178;11.566;2023-03-31T02:41:40;7.6;;;4.0;;
26824;SDS011;14402;48.178;11.566;2023-03-31T02:42:10;8.0;;;3.9;;
26824;SDS011;14402;48.178;11.566;2023-03-31T02:42:40;8.0;;;3.9;;
26824;SDS011;14402;48.178;11.566;2023-03-31T02:43:10;8.0;;;3.9;;
26824;SDS011;14402;48.178;11.566;2023-03-31T02:43:40;7.4;;;4.0;;
26824;SDS011;14402;48.178;11.566;2023-03-31T02:44:10;6.8;;;4.0;;
26824;SDS011;14402;48.178;11.566;2023-03-31T02:44:40;6.8;;;4.0;;
26824;SDS011;14402;48.178;11.566;2023-03-31T02:45:35;6.8;;;4.0;;
26824;SDS011;14402;48.178;11.566;2023-03-31T02:45:40;6.4;;;4.1;;
26824;SDS011;14402;48.178;11.566;2023-03-31T02:46:10;6.1;;;4.2;;
26824;SDS011;14402;48.178;11.566;2023-03-31T02:46:40;6.1;;;4.2;;
26824;SDS011;14402;48.178;11.566;2023-03-31T02:47:11;6.1;;;4.2;;
26824;SDS011;14402;48.178;11.566;2023-03-31T02:47:40;6.4;;;4.1;;
26824;SDS011;14402;48.178;11.566;2023-03-31T02:48:12;6.8;;;4.0;;
26824;SDS011;14402;48.178;11.566;2023-03-31T02:48:41;6.8;;;4.0;;
26824;SDS011;14402;48.178;11.566;2023-03-31T02:49:11;6.8;;;4.0;;
26824;SDS011;14402;48.178;11.566;2023-03-31T02:49:41;7.5;;;4.0;;
26824;SDS011;14402;48.178;11.566;2023-03-31T02:50:11;8.2;;;4.0;;
26824;SDS011;14402;48.178;11.566;2023-03-31T02:50:45;8.2;;;4.0;;
26824;SDS011;14402;48.178;11.566;2023-03-31T02:51:17;8.2;;;4.0;;
26824;SDS011;14402;48.178;11.566;2023-03-31T02:51:45;7.9;;;4.1;;
26824;SDS011;14402;48.178;11.566;2023-03-31T02:52:18;7.6;;;4.1;;
26824;SDS011;14402;48.178;11.566;2023-03-31T02:52:44;7.6;;;4.1;;
26824;SDS011;14402;48.178;11.566;2023-03-31T02:53:12;7.6;;;4.1;;
26824;SDS011;14402;48.178;11.566;2023-03-31T02:53:45;7.6;;;4.1;;
26824;SDS011;14402;48.178;11.566;2023-03-31T02:54:18;7.5;;;4.1;;
26824;SDS011;14402;48.178;11.566;2023-03-31T02:55:01;7.5;;;4.1;;
26824;SDS011;14402;48.178;11.566;2023-03-31T02:55:17;7.5;;;4.1;;
26824;SDS011;14402;48.178;11.566;2023-03-31T02:55:46;6.8;;;3.8;;
26824;SDS011;14402;48.178;11.566;2023-03-31T02:56:15;6.2;;;3.6;;
26824;SDS011;14402;48.178;11.566;2023-03-31T02:56:46;6.2;;;3.6;;
26824;SDS011;14402;48.178;11.566;2023-03-31T02:57:17;6.2;;;3.6;;
26824;SDS011;14402;48.178;11.566;2023-03-31T02:57:47;6.2;;;3.8;;
26824;SDS011;14402;48.178;11.566;2023-03-31T02:58:16;6.3;;;3.9;;
26824;SDS011;14402;48.178;11.566;2023-03-31T02:58:45;6.3;;;3.9;;
26824;SDS011;14402;48.178;11.566;2023-03-31T02:59:14;6.3;;;3.9;;
26824;SDS011;14402;48.178;11.566;2023-03-31T02:59:43;6.4;;;3.8;;
26824;SDS011;14402;48.178;11.566;2023-03-31T03:00:13;6.4;;;3.6;;
26824;SDS011;14402;48.178;11.566;2023-03-31T03:00:46;6.4;;;3.6;;
26824;SDS011;14402;48.178;11.566;2023-03-31T03:01:15;6.4;;;3.6;;
26824;SDS011;14402;48.178;11.566;2023-03-31T03:01:44;6.1;;;3.7;;
26824;SDS011;14402;48.178;11.566;2023-03-31T03:02:14;5.8;;;3.8;;
26824;SDS011;14402;48.178;11.566;2023-03-31T03:02:46;5.8;;;3.8;;
26824;SDS011;14402;48.178;11.566;2023-03-31T03:03:15;5.8;;;3.8;;